Time;durP1;ratioP1;P1;durP2;ratioP2;P2;SDS_P1;SDS_P2;PMS_P1;PMS_P2;Temp;Humidity;BMP_temperature;BMP_pressure;BME280_temperature;BME280_humidity;BME280_pressure;Samples;Min_cycle;Max_cycle;Signal;HPM_P1;HPM_P2
2022/05/10 00:00:30;;;;;;;10.23;5.13;;;;;;;14.80;68.02;101952.84;5095180;28;20024;-40
2022/05/10 00:02:59;;;;;;;11.25;4.90;;;;;;;14.72;68.44;101957.38;5097434;28;20032;-39
2022/05/10 00:05:28;;;;;;;13.98;5.20;;;;;;;14.83;68.14;101943.88;5097657;28;20031;-40
2022/05/10 00:07:54;;;;;;;12.30;5.80;;;;;;;14.91;67.62;101941.16;5096197;28;20035;-40
2022/05/10 00:10:20;;;;;;;12.65;5.22;;;;;;;14.95;67.47;101936.38;5096969;28;20110;-39
2022/05/10 00:12:45;;;;;;;14.10;5.53;;;;;;;14.92;67.40;101929.75;5096786;28;20099;-39
2022/05/10 00:15:11;;;;;;;13.32;5.50;;;;;;;14.82;67.33;101913.66;5097019;28;20055;-40
2022/05/10 00:17:40;;;;;;;13.73;5.95;;;;;;;14.76;67.67;101922.19;5096950;28;20017;-40
2022/05/10 00:20:09;;;;;;;15.32;5.50;;;;;;;14.73;67.84;101926.00;5096761;28;20053;-40
2022/05/10 00:22:35;;;;;;;11.85;5.90;;;;;;;14.66;67.70;101925.09;5097035;28;20020;-40
2022/05/10 00:25:01;;;;;;;12.20;5.57;;;;;;;14.66;67.93;101912.91;5096144;28;20055;-40
2022/05/10 00:27:27;;;;;;;13.23;5.97;;;;;;;14.75;67.15;101916.19;5096646;28;20027;-39
2022/05/10 00:29:52;;;;;;;11.23;5.55;;;;;;;14.68;67.43;101906.72;5096840;28;20108;-39
2022/05/10 00:32:17;;;;;;;12.50;5.93;;;;;;;14.69;67.23;101901.31;5096414;28;20027;-40
2022/05/10 00:34:43;;;;;;;13.20;5.60;;;;;;;14.65;67.36;101900.09;5096343;28;20024;-40
2022/05/10 00:37:11;;;;;;;12.65;6.20;;;;;;;14.65;68.27;101902.69;5096668;28;20039;-39
2022/05/10 00:39:37;;;;;;;15.77;6.78;;;;;;;14.52;68.54;101898.16;5096306;28;20047;-44
2022/05/10 00:42:10;;;;;;;15.38;6.85;;;;;;;14.53;67.46;101901.56;5096504;28;20101;-40
2022/05/10 00:45:14;;;;;;;16.10;6.13;;;;;;;14.69;66.48;101901.31;5095036;28;20032;-42
2022/05/10 00:47:47;;;;;;;16.17;6.82;;;;;;;14.61;66.11;101899.63;5055284;28;20048;-47
2022/05/10 00:50:31;;;;;;;14.10;6.50;;;;;;;14.51;66.24;101895.72;5096131;28;20027;-40
2022/05/10 00:53:05;;;;;;;18.02;6.75;;;;;;;14.55;66.08;101895.19;5096106;28;20035;-42
2022/05/10 00:55:43;;;;;;;11.65;6.93;;;;;;;14.53;66.05;101891.16;5096289;28;20024;-57
2022/05/10 00:58:24;;;;;;;13.88;7.15;;;;;;;14.51;65.84;101887.91;5094626;28;20050;-39
2022/05/10 01:00:54;;;;;;;12.15;7.03;;;;;;;14.53;65.65;101883.34;5095982;28;20062;-42
2022/05/10 01:03:28;;;;;;;20.10;7.55;;;;;;;14.52;65.69;101879.94;5095823;28;20055;-39
2022/05/10 01:06:25;;;;;;;17.60;7.15;;;;;;;14.51;65.52;101880.91;5096272;28;20054;-38
2022/05/10 01:09:13;;;;;;;16.05;7.28;;;;;;;14.58;64.95;101887.00;5094386;28;20031;-39
2022/05/10 01:11:49;;;;;;;15.55;7.72;;;;;;;14.60;64.70;101890.22;5094232;28;20398;-39
2022/05/10 01:14:28;;;;;;;17.65;7.90;;;;;;;14.63;64.49;101871.66;5095957;28;20035;-39
2022/05/10 01:16:53;;;;;;;20.30;8.00;;;;;;;14.66;64.41;101870.47;5094075;28;20035;-39
2022/05/10 01:19:19;;;;;;;16.70;8.18;;;;;;;14.71;64.34;101862.13;5095371;28;20020;-39
2022/05/10 01:22:09;;;;;;;21.13;8.93;;;;;;;14.71;64.01;101862.91;5095944;28;20031;-39
2022/05/10 01:25:11;;;;;;;17.30;8.82;;;;;;;14.74;64.01;101854.72;5093981;28;20498;-39
2022/05/10 01:27:56;;;;;;;18.48;9.48;;;;;;;14.68;63.99;101847.69;5095620;28;20028;-39
2022/05/10 01:30:25;;;;;;;18.45;9.70;;;;;;;14.70;64.30;101844.88;5095447;28;20024;-39
2022/05/10 01:33:31;;;;;;;16.60;8.82;;;;;;;14.76;64.04;101847.56;5095535;28;20442;-39
2022/05/10 01:36:14;;;;;;;20.67;8.90;;;;;;;14.81;63.78;101842.56;5072524;28;20032;-40
2022/05/10 01:38:53;;;;;;;16.33;8.90;;;;;;;14.78;64.06;101847.34;5095074;28;20028;-39
2022/05/10 01:41:30;;;;;;;16.67;9.18;;;;;;;14.74;64.13;101839.13;5095106;28;20103;-39
2022/05/10 01:44:14;;;;;;;17.42;9.23;;;;;;;14.53;64.33;101815.72;5095307;28;20523;-39
2022/05/10 01:46:40;;;;;;;19.65;8.60;;;;;;;14.80;63.83;101830.56;5095019;28;20024;-39
2022/05/10 01:49:41;;;;;;;18.45;9.20;;;;;;;14.89;63.67;101826.00;5095160;28;20151;-40
2022/05/10 01:52:16;;;;;;;17.85;8.43;;;;;;;14.96;63.37;101820.84;5095426;28;20024;-40
2022/05/10 01:54:47;;;;;;;17.83;8.98;;;;;;;14.91;63.41;101818.03;5095399;28;20036;-40
2022/05/10 01:57:16;;;;;;;18.33;9.18;;;;;;;14.94;63.41;101815.84;5094743;28;20369;-40
2022/05/10 01:59:53;;;;;;;18.45;8.90;;;;;;;14.93;63.33;101819.41;5093707;28;20024;-40
2022/05/10 02:02:23;;;;;;;19.38;8.68;;;;;;;14.95;63.34;101816.66;5095298;28;20032;-40
2022/05/10 02:04:52;;;;;;;18.83;9.07;;;;;;;14.86;63.51;101811.59;5094648;28;20016;-40
2022/05/10 02:07:21;;;;;;;19.45;9.07;;;;;;;14.93;63.40;101814.22;5093306;28;20024;-40
2022/05/10 02:09:59;;;;;;;20.13;9.57;;;;;;;14.95;63.13;101809.63;5094534;28;20024;-39
2022/05/10 02:12:48;;;;;;;18.30;8.80;;;;;;;14.88;63.42;101807.00;5094791;28;20045;-39
2022/05/10 02:15:26;;;;;;;23.13;9.20;;;;;;;14.86;63.48;101806.38;5094440;28;20099;-38
2022/05/10 02:18:00;;;;;;;15.85;8.38;;;;;;;14.93;63.46;101803.81;5094779;28;20055;-39
2022/05/10 02:20:33;;;;;;;21.83;8.85;;;;;;;14.96;63.44;101805.22;5094609;28;20039;-40
2022/05/10 02:23:13;;;;;;;20.77;8.95;;;;;;;15.00;62.99;101796.88;5093673;28;20028;-41
2022/05/10 02:25:44;;;;;;;18.23;8.98;;;;;;;14.97;63.22;101802.44;5094064;28;20533;-39
2022/05/10 02:28:44;;;;;;;19.40;9.38;;;;;;;15.03;63.19;101793.88;5094209;28;20056;-40
2022/05/10 02:31:17;;;;;;;18.60;9.07;;;;;;;14.93;63.23;101787.41;5012212;28;20041;-40
2022/05/10 02:33:46;;;;;;;18.95;8.68;;;;;;;15.02;62.79;101788.88;5081189;28;20058;-39
2022/05/10 02:36:11;;;;;;;21.13;9.20;;;;;;;14.95;62.92;101788.00;5094060;28;20020;-40
2022/05/10 02:38:39;;;;;;;20.35;8.82;;;;;;;14.98;62.97;101790.22;5094249;28;20016;-39
2022/05/10 02:41:10;;;;;;;18.67;8.65;;;;;;;15.02;62.58;101794.09;5094221;28;20020;-40
2022/05/10 02:43:49;;;;;;;21.95;9.25;;;;;;;15.09;62.55;101781.88;5093928;28;20020;-40
2022/05/10 02:46:15;;;;;;;24.60;8.75;;;;;;;15.13;62.37;101788.31;5094449;28;20375;-40
2022/05/10 02:48:41;;;;;;;17.10;8.57;;;;;;;14.96;62.26;101760.97;5094094;28;20459;-39
2022/05/10 02:51:06;;;;;;;21.05;8.40;;;;;;;15.10;62.53;101780.88;5093904;28;20068;-39
2022/05/10 02:53:32;;;;;;;18.15;9.02;;;;;;;15.12;62.16;101778.91;5093801;28;20028;-40
2022/05/10 02:56:01;;;;;;;18.35;9.05;;;;;;;15.02;62.56;101774.06;5093694;28;20032;-40
2022/05/10 02:58:40;;;;;;;18.63;9.15;;;;;;;15.04;62.71;101773.84;5094099;28;20455;-39
2022/05/10 03:01:13;;;;;;;20.90;9.20;;;;;;;15.16;62.23;101772.31;5094014;28;20442;-40
2022/05/10 03:03:39;;;;;;;16.75;8.90;;;;;;;15.13;62.38;101764.88;5094023;28;20028;-40
2022/05/10 03:06:04;;;;;;;19.85;9.77;;;;;;;15.13;62.51;101759.66;5092242;28;20028;-40
2022/05/10 03:08:30;;;;;;;17.20;9.07;;;;;;;15.14;62.51;101756.09;5093617;28;20055;-39
2022/05/10 03:10:55;;;;;;;26.63;9.35;;;;;;;14.98;63.02;101759.00;5093411;28;20048;-39
2022/05/10 03:13:21;;;;;;;24.85;9.65;;;;;;;14.96;63.20;101750.56;5093796;28;20020;-40
2022/05/10 03:15:46;;;;;;;17.95;10.02;;;;;;;14.97;63.29;101754.81;5093324;28;20024;-39
2022/05/10 03:18:12;;;;;;;18.38;9.98;;;;;;;14.98;63.10;101751.19;5093640;28;20024;-39
2022/05/10 03:20:37;;;;;;;23.08;10.13;;;;;;;14.99;63.10;101745.81;5093415;28;20035;-40
2022/05/10 03:23:03;;;;;;;18.92;10.02;;;;;;;14.97;63.23;101747.00;5093644;28;20111;-40
2022/05/10 03:25:30;;;;;;;20.88;10.13;;;;;;;15.06;63.22;101740.63;5093266;28;20475;-39
2022/05/10 03:27:58;;;;;;;22.38;10.23;;;;;;;14.95;63.60;101739.38;5093383;28;20020;-40
2022/05/10 03:30:28;;;;;;;25.58;10.88;;;;;;;14.97;63.50;101728.78;5093678;28;20032;-40
2022/05/10 03:32:53;;;;;;;22.10;10.65;;;;;;;14.98;63.38;101733.78;5092142;28;20093;-39
2022/05/10 03:35:19;;;;;;;17.02;10.43;;;;;;;14.91;63.83;101730.34;5097035;28;20479;-39
2022/05/10 03:37:45;;;;;;;20.20;10.15;;;;;;;14.91;63.93;101727.75;5097690;28;20034;-39
2022/05/10 03:40:11;;;;;;;20.48;10.63;;;;;;;14.77;64.52;101726.84;5097643;28;20016;-39
2022/05/10 03:42:51;;;;;;;22.35;10.93;;;;;;;14.76;64.72;101722.66;5096438;28;20024;-40
2022/05/10 03:45:18;;;;;;;20.42;10.88;;;;;;;14.85;64.51;101723.31;5097276;28;20103;-40
2022/05/10 03:47:45;;;;;;;22.73;10.95;;;;;;;14.90;64.47;101723.50;5097537;28;20012;-39
2022/05/10 03:50:12;;;;;;;20.73;11.30;;;;;;;14.93;64.44;101720.53;5097215;28;20020;-40
2022/05/10 03:52:40;;;;;;;23.98;11.32;;;;;;;14.95;64.43;101723.75;5097433;28;20089;-38
2022/05/10 03:55:07;;;;;;;22.63;11.35;;;;;;;14.98;64.13;101719.97;5095878;28;20020;-40
2022/05/10 03:57:32;;;;;;;22.65;11.18;;;;;;;14.96;64.05;101714.13;5095833;28;20028;-39
2022/05/10 03:59:58;;;;;;;26.70;10.70;;;;;;;14.83;64.69;101709.69;5096904;28;20106;-40
2022/05/10 04:02:23;;;;;;;23.35;11.55;;;;;;;14.85;64.64;101715.50;5096766;28;20024;-39
2022/05/10 04:04:48;;;;;;;19.45;11.13;;;;;;;14.91;64.25;101714.72;5097372;28;20036;-40
2022/05/10 04:07:14;;;;;;;23.42;11.75;;;;;;;14.92;64.40;101712.94;5096914;28;20020;-40
2022/05/10 04:09:39;;;;;;;24.30;11.45;;;;;;;15.06;63.94;101704.97;5095516;28;20050;-40
2022/05/10 04:12:05;;;;;;;20.25;11.15;;;;;;;15.01;63.95;101707.34;5096848;28;20024;-40
2022/05/10 04:14:31;;;;;;;24.58;10.88;;;;;;;15.04;64.04;101698.34;5096694;28;20031;-39
2022/05/10 04:16:56;;;;;;;21.33;11.07;;;;;;;15.08;63.70;101700.38;5096634;28;20026;-40
2022/05/10 04:19:21;;;;;;;21.52;11.25;;;;;;;15.14;63.89;101700.63;5095443;28;20024;-39
2022/05/10 04:21:48;;;;;;;22.77;10.80;;;;;;;15.00;64.26;101704.97;5095296;28;20463;-39
2022/05/10 04:24:13;;;;;;;23.42;11.07;;;;;;;15.05;63.92;101705.19;5096779;28;20036;-39
2022/05/10 04:26:39;;;;;;;18.05;11.02;;;;;;;14.95;64.34;101704.72;5096721;28;20073;-40
2022/05/10 04:29:05;;;;;;;22.08;11.43;;;;;;;14.89;64.65;101711.50;5096795;28;20078;-40
2022/05/10 04:31:30;;;;;;;28.08;11.82;;;;;;;14.93;64.64;101709.31;5096488;28;20024;-40
2022/05/10 04:33:55;;;;;;;21.42;11.75;;;;;;;14.98;64.38;101706.94;5096338;28;20081;-40
2022/05/10 04:36:23;;;;;;;25.80;11.43;;;;;;;14.98;64.59;101706.94;5096267;28;20028;-40
2022/05/10 04:38:49;;;;;;;20.08;11.05;;;;;;;15.03;64.12;101707.19;5096594;28;20419;-39
2022/05/10 04:41:25;;;;;;;25.40;11.18;;;;;;;15.07;63.94;101700.56;5096225;28;20059;-40
2022/05/10 04:43:55;;;;;;;24.00;11.45;;;;;;;15.17;63.87;101701.03;5095979;28;20036;-41
2022/05/10 04:46:20;;;;;;;20.67;10.23;;;;;;;15.22;63.63;101701.25;5096058;28;20017;-40
2022/05/10 04:48:46;;;;;;;23.58;11.18;;;;;;;15.14;63.96;101704.03;5096389;28;20027;-39
2022/05/10 04:51:11;;;;;;;22.08;11.40;;;;;;;15.24;63.42;101681.00;5096390;28;20366;-40
2022/05/10 04:53:37;;;;;;;19.52;10.25;;;;;;;15.27;63.20;101701.44;5096486;28;20080;-39
2022/05/10 04:56:06;;;;;;;22.67;10.95;;;;;;;15.39;62.76;101699.06;5096408;28;20379;-40
2022/05/10 04:58:31;;;;;;;23.77;10.68;;;;;;;15.40;62.46;101698.09;5095904;28;20470;-39
2022/05/10 05:01:01;;;;;;;22.05;10.13;;;;;;;15.36;62.25;101681.25;5095032;28;20024;-40
2022/05/10 05:03:26;;;;;;;20.90;10.07;;;;;;;15.47;62.11;101687.69;5093496;28;20081;-39
2022/05/10 05:05:52;;;;;;;20.20;9.82;;;;;;;15.66;61.56;101694.75;5093615;28;20499;-40
2022/05/10 05:08:18;;;;;;;23.75;10.90;;;;;;;15.65;61.42;101693.16;5096164;28;20024;-40
2022/05/10 05:10:43;;;;;;;22.13;10.45;;;;;;;15.74;60.97;101684.16;5095799;28;20154;-39
2022/05/10 05:13:09;;;;;;;24.58;10.13;;;;;;;15.78;60.43;101668.94;5095561;28;20065;-40
2022/05/10 05:15:34;;;;;;;17.58;9.27;;;;;;;15.83;60.57;101689.19;5095765;28;20051;-39
2022/05/10 05:18:03;;;;;;;20.38;10.55;;;;;;;15.95;60.50;101688.38;5095700;28;20065;-39
2022/05/10 05:20:28;;;;;;;19.98;9.05;;;;;;;16.00;59.81;101682.59;5095773;28;20443;-39
2022/05/10 05:22:53;;;;;;;18.15;9.68;;;;;;;15.95;60.18;101688.38;5095527;28;20138;-39
2022/05/10 05:25:19;;;;;;;18.98;9.55;;;;;;;16.10;59.76;101690.78;5093224;28;20051;-39
2022/05/10 05:27:44;;;;;;;20.48;9.45;;;;;;;16.09;59.49;101681.38;5095543;28;20028;-39
2022/05/10 05:30:10;;;;;;;23.88;9.13;;;;;;;16.04;59.30;101670.75;5094921;28;20424;-38
2022/05/10 05:32:35;;;;;;;14.73;8.85;;;;;;;16.14;59.19;101681.56;5095264;28;20034;-39
2022/05/10 05:35:02;;;;;;;16.92;8.88;;;;;;;16.19;58.90;101686.16;5095294;28;20024;-40
2022/05/10 05:37:33;;;;;;;17.05;9.07;;;;;;;16.31;58.65;101679.31;5095723;28;20111;-40
2022/05/10 05:39:59;;;;;;;22.08;9.23;;;;;;;16.44;58.38;101670.69;5094960;28;20028;-39
2022/05/10 05:42:25;;;;;;;21.85;9.18;;;;;;;16.39;58.21;101666.06;5094943;28;20031;-40
2022/05/10 05:44:50;;;;;;;17.85;8.85;;;;;;;16.42;58.24;101680.53;5094347;28;20020;-40
2022/05/10 05:47:16;;;;;;;21.50;9.55;;;;;;;16.43;58.49;101675.13;5094967;28;20024;-40
2022/05/10 05:49:41;;;;;;;18.15;8.75;;;;;;;16.62;57.84;101675.25;5095030;28;20455;-40
2022/05/10 05:52:07;;;;;;;22.83;9.55;;;;;;;16.63;58.01;101675.06;5094747;28;20059;-40
2022/05/10 05:54:33;;;;;;;18.13;9.23;;;;;;;16.86;57.18;101673.78;5095119;28;20128;-40
2022/05/10 05:57:02;;;;;;;16.75;9.27;;;;;;;17.10;56.81;101664.47;5093980;28;20067;-40
2022/05/10 05:59:28;;;;;;;20.92;9.40;;;;;;;17.25;56.50;101666.81;5094530;28;20055;-40
2022/05/10 06:01:54;;;;;;;18.38;9.52;;;;;;;17.20;56.69;101666.63;5094833;28;20478;-40
2022/05/10 06:04:20;;;;;;;23.73;10.23;;;;;;;17.19;56.65;101662.41;5094503;28;20024;-40
2022/05/10 06:06:45;;;;;;;29.02;9.52;;;;;;;17.47;56.13;101662.84;5094430;28;20104;-40
2022/05/10 06:09:11;;;;;;;20.60;9.73;;;;;;;17.57;55.96;101665.78;5094211;28;20397;-40
2022/05/10 06:11:36;;;;;;;17.58;10.02;;;;;;;17.60;55.86;101665.38;5094653;28;20028;-40
2022/05/10 06:14:01;;;;;;;22.80;10.02;;;;;;;17.78;55.58;101663.84;5094508;28;20029;-40
2022/05/10 06:16:27;;;;;;;23.50;10.27;;;;;;;18.21;54.67;101663.91;5094115;28;20024;-40
2022/05/10 06:18:53;;;;;;;19.45;9.93;;;;;;;18.46;53.81;101657.81;5094136;28;20059;-40
2022/05/10 06:21:18;;;;;;;20.73;10.10;;;;;;;19.19;51.80;101653.53;5094928;28;20067;-40
2022/05/10 06:23:43;;;;;;;20.60;10.00;;;;;;;19.91;50.13;101659.53;5094568;28;20035;-40
2022/05/10 06:26:09;;;;;;;23.17;10.27;;;;;;;20.56;48.36;101655.16;5094158;28;20095;-41
2022/05/10 06:28:34;;;;;;;20.10;10.20;;;;;;;19.89;49.38;101652.91;5093995;28;20107;-41
2022/05/10 06:31:02;;;;;;;19.88;9.80;;;;;;;18.99;51.90;101638.91;5093598;28;20051;-40
2022/05/10 06:33:28;;;;;;;27.50;10.23;;;;;;;18.16;54.22;101621.09;5094581;28;20028;-40
2022/05/10 06:35:53;;;;;;;20.10;9.82;;;;;;;18.33;54.72;101635.22;5094158;28;20107;-41
2022/05/10 06:38:27;;;;;;;26.58;10.63;;;;;;;18.06;55.21;101639.88;5094195;28;20039;-40
2022/05/10 06:40:53;;;;;;;20.23;10.27;;;;;;;17.97;55.35;101607.19;5094068;28;20028;-40
2022/05/10 06:43:19;;;;;;;18.60;10.07;;;;;;;17.97;55.61;101638.56;5094524;28;20024;-41
2022/05/10 06:45:45;;;;;;;30.52;10.30;;;;;;;18.02;55.57;101628.28;5093479;28;20028;-40
2022/05/10 06:48:11;;;;;;;20.80;10.45;;;;;;;18.12;55.58;101620.72;5093282;28;20409;-40
2022/05/10 06:50:37;;;;;;;19.42;9.18;;;;;;;18.39;55.16;101618.63;5094128;28;20028;-40
2022/05/10 06:53:04;;;;;;;20.85;8.98;;;;;;;18.40;55.32;101616.81;5094215;28;20355;-40
2022/05/10 06:55:31;;;;;;;21.50;9.65;;;;;;;18.34;55.10;101615.06;5093060;28;20032;-40
2022/05/10 06:57:57;;;;;;;16.58;8.80;;;;;;;18.47;55.25;101607.88;5091633;28;20095;-40
2022/05/10 07:00:23;;;;;;;22.02;9.65;;;;;;;18.51;54.75;101607.44;5091608;28;20027;-41
2022/05/10 07:02:49;;;;;;;17.55;9.57;;;;;;;18.26;55.50;101605.69;5092116;28;20028;-41
2022/05/10 07:05:16;;;;;;;19.55;9.63;;;;;;;18.49;54.92;101579.66;5092192;28;20026;-39
2022/05/10 07:07:42;;;;;;;24.42;9.63;;;;;;;18.54;55.06;101602.56;5091741;28;20056;-40
2022/05/10 07:10:10;;;;;;;16.17;9.52;;;;;;;18.46;55.19;101592.38;5092031;28;20516;-39
2022/05/10 07:12:37;;;;;;;16.98;8.77;;;;;;;18.64;54.89;101602.03;5092619;28;20031;-39
2022/05/10 07:15:04;;;;;;;18.35;8.68;;;;;;;18.89;54.18;101600.13;5093082;28;20055;-38
2022/05/10 07:17:29;;;;;;;16.40;8.85;;;;;;;18.75;54.43;101596.09;5091392;28;20039;-39
2022/05/10 07:19:55;;;;;;;16.60;8.50;;;;;;;18.97;53.82;101588.53;5091637;28;20429;-40
2022/05/10 07:22:20;;;;;;;16.42;7.70;;;;;;;19.15;53.78;101593.72;5093182;28;20016;-38
2022/05/10 07:24:45;;;;;;;19.95;8.50;;;;;;;19.16;53.25;101603.19;5091836;28;20105;-39
2022/05/10 07:27:10;;;;;;;21.13;8.48;;;;;;;19.24;53.29;101596.81;5093374;28;20012;-40
2022/05/10 07:29:36;;;;;;;21.48;8.18;;;;;;;19.24;53.07;101588.16;5091200;28;20682;-40
2022/05/10 07:32:01;;;;;;;21.77;8.20;;;;;;;19.31;53.35;101581.00;5093026;28;20030;-40
2022/05/10 07:34:27;;;;;;;17.30;7.53;;;;;;;19.42;53.15;101582.03;5093591;28;20032;-40
2022/05/10 07:36:52;;;;;;;18.88;7.90;;;;;;;19.57;52.54;101590.28;5091882;28;20111;-40
2022/05/10 07:39:18;;;;;;;16.75;8.27;;;;;;;19.50;52.59;101577.25;5093631;28;20024;-43
2022/05/10 07:41:44;;;;;;;18.02;7.55;;;;;;;19.64;52.48;101574.41;5093096;28;20052;-40
2022/05/10 07:44:10;;;;;;;18.67;7.97;;;;;;;19.74;52.37;101579.94;5093171;28;20024;-40
2022/05/10 07:46:36;;;;;;;16.48;7.35;;;;;;;19.77;52.28;101561.13;5093645;28;20408;-39
2022/05/10 07:49:01;;;;;;;15.38;7.20;;;;;;;19.84;51.71;101573.06;5093738;28;20032;-40
2022/05/10 07:51:27;;;;;;;14.40;7.55;;;;;;;19.89;51.96;101572.38;5093041;28;20057;-39
2022/05/10 07:53:52;;;;;;;18.63;7.25;;;;;;;20.11;51.13;101564.72;5093206;28;20117;-40
2022/05/10 07:56:18;;;;;;;20.00;7.28;;;;;;;20.14;51.53;101563.44;5093314;28;20348;-39
2022/05/10 07:58:43;;;;;;;18.80;6.90;;;;;;;20.26;51.11;101570.28;5093121;28;20043;-40
2022/05/10 08:01:09;;;;;;;14.82;6.63;;;;;;;20.24;50.81;101569.69;5093297;28;20108;-40
2022/05/10 08:03:35;;;;;;;15.35;6.13;;;;;;;20.27;50.66;101560.56;5093243;28;20474;-40
2022/05/10 08:06:01;;;;;;;12.38;6.30;;;;;;;20.60;50.17;101574.88;5092631;28;20024;-40
2022/05/10 08:08:29;;;;;;;20.23;6.38;;;;;;;20.71;50.05;101563.53;5092863;28;20030;-39
2022/05/10 08:10:55;;;;;;;16.75;5.53;;;;;;;21.07;48.79;101575.44;5093310;28;20024;-38
2022/05/10 08:13:23;;;;;;;14.52;6.10;;;;;;;21.91;46.92;101566.72;5093155;28;20024;-39
2022/05/10 08:15:50;;;;;;;12.57;6.28;;;;;;;23.36;43.27;101565.31;5092869;28;20039;-41
2022/05/10 08:18:17;;;;;;;12.85;5.50;;;;;;;23.90;42.31;101574.91;5092995;28;20360;-40
2022/05/10 08:20:42;;;;;;;16.20;5.95;;;;;;;23.53;42.43;101558.03;5095551;28;20085;-39
2022/05/10 08:23:09;;;;;;;10.80;5.68;;;;;;;23.40;43.46;101547.94;5096804;28;20166;-40
2022/05/10 08:25:35;;;;;;;14.77;5.88;;;;;;;22.87;43.74;101547.78;5096682;28;20052;-40
2022/05/10 08:28:01;;;;;;;12.63;5.38;;;;;;;22.89;44.32;101543.03;5096822;28;20026;-40
2022/05/10 08:30:27;;;;;;;14.65;5.57;;;;;;;22.61;44.72;101528.31;5096674;28;20085;-39
2022/05/10 08:32:52;;;;;;;12.55;5.88;;;;;;;23.02;43.90;101539.25;5094422;28;20023;-39
2022/05/10 08:35:18;;;;;;;15.77;5.68;;;;;;;23.61;43.17;101543.56;5096811;28;20042;-41
2022/05/10 08:37:43;;;;;;;11.82;5.60;;;;;;;22.86;43.47;101529.59;5096478;28;20023;-41
2022/05/10 08:40:25;;;;;;;13.13;5.80;;;;;;;23.51;43.25;101546.19;5096824;28;20425;-40
2022/05/10 08:42:54;;;;;;;8.65;4.28;;;;;;;24.39;41.44;101535.72;5095164;28;20039;-41
2022/05/10 08:45:19;;;;;;;16.17;5.80;;;;;;;23.94;41.91;101539.00;5096441;28;20027;-41
2022/05/10 08:47:46;;;;;;;23.05;7.82;;;;;;;23.79;42.19;101537.09;5096075;28;20095;-40
2022/05/10 08:50:13;;;;;;;23.33;5.80;;;;;;;24.02;41.98;101531.38;5095737;28;20019;-40
2022/05/10 08:52:42;;;;;;;19.30;5.72;;;;;;;24.09;41.81;101550.44;5094772;28;20024;-45
2022/05/10 08:55:09;;;;;;;14.88;5.53;;;;;;;24.06;41.80;101531.69;5096356;28;20028;-40
2022/05/10 08:57:57;;;;;;;19.02;5.95;;;;;;;24.43;41.58;101520.19;5096062;28;20423;-41
2022/05/10 09:00:32;;;;;;;13.43;6.05;;;;;;;23.97;42.61;101522.69;5096234;28;20034;-40
2022/05/10 09:02:59;;;;;;;13.93;5.47;;;;;;;23.63;42.93;101520.38;5096403;28;20024;-40
2022/05/10 09:05:40;;;;;;;8.88;5.18;;;;;;;23.89;42.52;101518.69;5093803;28;20493;-40
2022/05/10 09:08:29;;;;;;;15.95;5.60;;;;;;;24.48;41.62;101512.25;5094526;28;20028;-40
2022/05/10 09:11:05;;;;;;;13.25;5.35;;;;;;;25.08;40.67;101523.88;5095272;28;20638;-40
2022/05/10 09:13:31;;;;;;;10.73;4.43;;;;;;;25.07;40.79;101517.03;5095484;28;20360;-40
2022/05/10 09:16:08;;;;;;;14.32;5.53;;;;;;;24.34;41.28;101525.16;5095524;28;20077;-44
2022/05/10 09:18:46;;;;;;;11.40;5.53;;;;;;;23.81;42.82;101533.16;5095494;28;20027;-39
2022/05/10 09:21:19;;;;;;;16.88;5.72;;;;;;;23.83;43.23;101536.34;5095793;28;20048;-40
2022/05/10 09:24:18;;;;;;;17.67;5.75;;;;;;;23.67;43.14;101526.72;5095873;28;20055;-42
2022/05/10 09:26:51;;;;;;;17.35;5.53;;;;;;;23.83;42.86;101530.28;5095669;28;20020;-40
2022/05/10 09:29:37;;;;;;;10.15;5.70;;;;;;;23.65;43.12;101531.47;5095899;28;20024;-40
2022/05/10 09:35:29;;;;;;;15.35;5.38;;;;;;;24.20;42.68;101535.41;5095475;28;20114;-40
2022/05/10 09:37:56;;;;;;;11.60;5.90;;;;;;;23.59;44.01;101527.19;5094577;28;20046;-41
2022/05/10 09:40:28;;;;;;;11.48;6.00;;;;;;;23.03;45.18;101538.19;5095274;28;20024;-42
2022/05/10 09:43:21;;;;;;;10.30;6.03;;;;;;;23.17;44.77;101535.94;5094842;28;20028;-40
2022/05/10 09:46:15;;;;;;;11.10;6.50;;;;;;;23.11;45.29;101529.03;5095220;28;20020;-40
2022/05/10 09:48:42;;;;;;;13.88;5.47;;;;;;;23.36;44.08;101523.13;5093751;28;20055;-39
2022/05/10 09:51:19;;;;;;;17.73;5.05;;;;;;;24.15;43.22;101535.41;5094282;28;20378;-41
2022/05/10 09:53:45;;;;;;;16.85;6.40;;;;;;;23.56;43.61;101530.34;5093478;28;20030;-39
2022/05/10 09:56:23;;;;;;;14.60;5.70;;;;;;;23.88;43.44;101538.22;5094846;28;20027;-40
2022/05/10 09:58:58;;;;;;;10.98;4.53;;;;;;;23.97;43.55;101533.22;5094688;28;20073;-40
2022/05/10 10:01:55;;;;;;;13.25;4.90;;;;;;;23.77;43.80;101541.84;5094029;28;20047;-35
2022/05/10 10:04:27;;;;;;;13.50;5.05;;;;;;;23.91;43.07;101532.41;5094512;28;20032;-37
2022/05/10 10:07:06;;;;;;;15.13;5.57;;;;;;;23.98;42.84;101543.53;5095270;28;20016;-35
2022/05/10 10:09:41;;;;;;;8.70;4.40;;;;;;;24.32;42.02;101535.19;5094694;28;20186;-35
2022/05/10 10:12:31;;;;;;;9.13;4.05;;;;;;;24.38;41.37;101528.84;5094723;28;20074;-34
2022/05/10 10:14:58;;;;;;;9.35;3.60;;;;;;;24.44;41.26;101537.63;5082631;28;20036;-35
2022/05/10 10:17:33;;;;;;;12.60;4.20;;;;;;;24.83;40.13;101531.81;5094028;28;20081;-35
2022/05/10 10:20:11;;;;;;;15.80;3.60;;;;;;;24.73;40.14;101536.06;5094027;28;20039;-35
2022/05/10 10:22:53;;;;;;;10.88;4.10;;;;;;;25.40;39.52;101534.16;5093061;28;20019;-34
2022/05/10 10:25:26;;;;;;;18.38;3.78;;;;;;;25.60;38.52;101532.53;5093812;28;20096;-34
2022/05/10 10:28:19;;;;;;;11.00;3.80;;;;;;;26.59;37.83;101522.03;5093798;28;20051;-35
2022/05/10 10:30:55;;;;;;;9.48;3.90;;;;;;;25.30;38.38;101528.13;5093982;28;20394;-34
2022/05/10 10:33:34;;;;;;;12.50;3.60;;;;;;;25.33;38.24;101527.59;5094067;28;20030;-35
2022/05/10 10:36:21;;;;;;;6.68;3.70;;;;;;;25.27;38.40;101532.09;5094098;28;20374;-36
2022/05/10 10:38:55;;;;;;;7.43;3.60;;;;;;;25.21;39.01;101514.66;5093931;28;20020;-35
2022/05/10 10:41:42;;;;;;;9.32;4.20;;;;;;;24.88;39.95;101519.41;5094188;28;20028;-35
2022/05/10 10:44:28;;;;;;;10.80;3.70;;;;;;;25.37;38.15;101521.47;5094094;28;20077;-34
2022/05/10 10:47:07;;;;;;;8.77;3.63;;;;;;;25.94;37.94;101510.75;5093986;28;20027;-34
2022/05/10 10:49:48;;;;;;;11.93;3.80;;;;;;;25.52;38.72;101522.50;5094128;28;20367;-36
2022/05/10 10:52:14;;;;;;;7.53;3.30;;;;;;;25.83;38.00;101520.56;5093877;28;20112;-34
2022/05/10 10:54:40;;;;;;;9.30;3.13;;;;;;;26.16;37.69;101519.09;5094706;28;20051;-35
2022/05/10 10:57:20;;;;;;;8.73;3.67;;;;;;;26.10;36.19;101518.34;5093801;28;20111;-35
2022/05/10 10:59:57;;;;;;;10.35;3.70;;;;;;;26.03;35.97;101517.03;5093925;28;20058;-37
2022/05/10 11:02:40;;;;;;;8.65;3.60;;;;;;;26.44;36.14;101511.50;5093959;28;20020;-36
2022/05/10 11:05:28;;;;;;;12.13;4.03;;;;;;;26.35;35.89;101508.63;5094008;28;20122;-35
2022/05/10 11:08:11;;;;;;;7.88;3.80;;;;;;;26.93;36.16;101511.41;5092353;28;20020;-33
2022/05/10 11:10:40;;;;;;;9.88;4.13;;;;;;;26.15;37.02;101512.19;5093723;28;20032;-34
2022/05/10 11:13:32;;;;;;;8.98;3.40;;;;;;;27.37;35.73;101505.16;5093768;28;20493;-40
2022/05/10 11:16:23;;;;;;;10.93;3.90;;;;;;;26.72;36.55;101496.72;5093598;28;20051;-39
2022/05/10 11:19:13;;;;;;;12.60;4.45;;;;;;;25.94;38.61;101500.16;5093199;28;20067;-39
2022/05/10 11:21:55;;;;;;;13.13;3.95;;;;;;;25.48;39.94;101501.09;5093214;28;20020;-39
2022/05/10 11:24:39;;;;;;;9.10;4.50;;;;;;;25.40;39.18;101499.78;5093612;28;20138;-39
2022/05/10 11:27:13;;;;;;;15.50;4.88;;;;;;;25.31;39.59;101511.19;5093317;28;20040;-40
2022/05/10 11:29:40;;;;;;;12.65;4.63;;;;;;;25.01;39.98;101502.22;5093484;28;20033;-40
2022/05/10 11:32:40;;;;;;;11.38;4.10;;;;;;;25.22;39.63;101500.38;5093426;28;20024;-40
2022/05/10 11:35:08;;;;;;;11.68;3.75;;;;;;;25.89;39.28;101511.53;5093986;28;20016;-39
2022/05/10 11:37:44;;;;;;;13.10;3.90;;;;;;;26.34;38.09;101504.41;5091677;28;20024;-40